sensor_id;sensor_type;location;lat;lon;timestamp;P1;durP1;ratioP1;P2;durP2;ratioP2
48791;SDS011;34587;48.816;9.420;2024-03-17T00:01:49;8.75;;;4.45;;
48791;SDS011;34587;48.816;9.420;2024-03-17T00:04:14;9.75;;;5.38;;
48791;SDS011;34587;48.816;9.420;2024-03-17T00:06:40;9.85;;;5.90;;
48791;SDS011;34587;48.816;9.420;2024-03-17T00:09:05;11.38;;;6.45;;
48791;SDS011;34587;48.816;9.420;2024-03-17T00:11:34;20.67;;;7.07;;
48791;SDS011;34587;48.816;9.420;2024-03-17T00:14:00;10.25;;;6.88;;
48791;SDS011;34587;48.816;9.420;2024-03-17T00:16:28;18.95;;;8.05;;
48791;SDS011;34587;48.816;9.420;2024-03-17T00:18:53;15.32;;;7.90;;
48791;SDS011;34587;48.816;9.420;2024-03-17T00:21:20;12.57;;;7.75;;
48791;SDS011;34587;48.816;9.420;2024-03-17T00:23:49;22.25;;;7.95;;
48791;SDS011;34587;48.816;9.420;2024-03-17T00:26:14;18.63;;;8.63;;
48791;SDS011;34587;48.816;9.420;2024-03-17T00:28:40;25.25;;;9.20;;
48791;SDS011;34587;48.816;9.420;2024-03-17T00:31:05;28.45;;;7.90;;
48791;SDS011;34587;48.816;9.420;2024-03-17T00:33:30;27.25;;;7.40;;
48791;SDS011;34587;48.816;9.420;2024-03-17T00:35:56;14.15;;;6.93;;
48791;SDS011;34587;48.816;9.420;2024-03-17T00:38:21;16.30;;;6.93;;
48791;SDS011;34587;48.816;9.420;2024-03-17T00:40:46;15.50;;;7.60;;
48791;SDS011;34587;48.816;9.420;2024-03-17T00:43:14;28.70;;;7.35;;
48791;SDS011;34587;48.816;9.420;2024-03-17T00:45:39;15.27;;;7.65;;
48791;SDS011;34587;48.816;9.420;2024-03-17T00:48:04;15.02;;;7.60;;
48791;SDS011;34587;48.816;9.420;2024-03-17T00:50:31;22.00;;;6.97;;
48791;SDS011;34587;48.816;9.420;2024-03-17T00:52:57;21.67;;;8.02;;
48791;SDS011;34587;48.816;9.420;2024-03-17T00:55:22;11.85;;;6.65;;
48791;SDS011;34587;48.816;9.420;2024-03-17T00:57:47;17.05;;;6.65;;
48791;SDS011;34587;48.816;9.420;2024-03-17T05:46:35;8.98;;;6.30;;
48791;SDS011;34587;48.816;9.420;2024-03-17T05:49:01;15.18;;;6.43;;
48791;SDS011;34587;48.816;9.420;2024-03-17T05:51:26;13.45;;;6.82;;
48791;SDS011;34587;48.816;9.420;2024-03-17T05:53:53;12.18;;;6.00;;
48791;SDS011;34587;48.816;9.420;2024-03-17T05:56:18;14.32;;;6.43;;
48791;SDS011;34587;48.816;9.420;2024-03-17T05:58:43;24.85;;;6.32;;
48791;SDS011;34587;48.816;9.420;2024-03-17T06:01:09;18.02;;;5.95;;
48791;SDS011;34587;48.816;9.420;2024-03-17T06:03:36;21.85;;;7.18;;
48791;SDS011;34587;48.816;9.420;2024-03-17T06:06:02;12.95;;;7.28;;
48791;SDS011;34587;48.816;9.420;2024-03-17T06:08:28;16.45;;;6.38;;
48791;SDS011;34587;48.816;9.420;2024-03-17T06:10:54;12.38;;;6.82;;
48791;SDS011;34587;48.816;9.420;2024-03-17T06:13:21;9.85;;;5.70;;
48791;SDS011;34587;48.816;9.420;2024-03-17T06:15:47;11.02;;;6.40;;
48791;SDS011;34587;48.816;9.420;2024-03-17T06:18:13;13.60;;;6.47;;
48791;SDS011;34587;48.816;9.420;2024-03-17T06:20:42;10.32;;;6.45;;
48791;SDS011;34587;48.816;9.420;2024-03-17T06:23:11;11.68;;;6.28;;
48791;SDS011;34587;48.816;9.420;2024-03-17T06:25:40;12.63;;;5.75;;
48791;SDS011;34587;48.816;9.420;2024-03-17T06:28:07;12.70;;;7.28;;
48791;SDS011;34587;48.816;9.420;2024-03-17T06:30:39;14.65;;;5.57;;
48791;SDS011;34587;48.816;9.420;2024-03-17T06:33:07;10.68;;;6.40;;
48791;SDS011;34587;48.816;9.420;2024-03-17T06:35:36;7.78;;;5.20;;
48791;SDS011;34587;48.816;9.420;2024-03-17T06:38:01;21.67;;;6.43;;
48791;SDS011;34587;48.816;9.420;2024-03-17T06:40:27;11.93;;;5.70;;
48791;SDS011;34587;48.816;9.420;2024-03-17T06:42:53;10.70;;;6.35;;
48791;SDS011;34587;48.816;9.420;2024-03-17T06:45:18;10.60;;;5.72;;
48791;SDS011;34587;48.816;9.420;2024-03-17T06:47:45;18.65;;;5.18;;
48791;SDS011;34587;48.816;9.420;2024-03-17T06:50:11;7.22;;;5.15;;
48791;SDS011;34587;48.816;9.420;2024-03-17T06:52:37;8.18;;;5.30;;
48791;SDS011;34587;48.816;9.420;2024-03-17T06:55:02;12.43;;;5.60;;
48791;SDS011;34587;48.816;9.420;2024-03-17T06:57:28;9.80;;;5.90;;
48791;SDS011;34587;48.816;9.420;2024-03-17T06:59:53;10.35;;;5.18;;
48791;SDS011;34587;48.816;9.420;2024-03-17T07:02:19;9.15;;;5.68;;
48791;SDS011;34587;48.816;9.420;2024-03-17T07:04:45;8.88;;;5.32;;
48791;SDS011;34587;48.816;9.420;2024-03-17T07:07:11;13.77;;;6.18;;
48791;SDS011;34587;48.816;9.420;2024-03-17T07:09:37;14.48;;;5.65;;
48791;SDS011;34587;48.816;9.420;2024-03-17T07:12:04;8.98;;;4.95;;
48791;SDS011;34587;48.816;9.420;2024-03-17T07:14:31;7.95;;;5.07;;
48791;SDS011;34587;48.816;9.420;2024-03-17T07:16:57;11.05;;;6.00;;
48791;SDS011;34587;48.816;9.420;2024-03-17T07:19:22;10.77;;;5.60;;
48791;SDS011;34587;48.816;9.420;2024-03-17T07:21:47;11.10;;;5.68;;
48791;SDS011;34587;48.816;9.420;2024-03-17T07:24:13;9.00;;;5.20;;
48791;SDS011;34587;48.816;9.420;2024-03-17T07:26:38;7.38;;;5.05;;
48791;SDS011;34587;48.816;9.420;2024-03-17T07:29:03;10.18;;;5.10;;
48791;SDS011;34587;48.816;9.420;2024-03-17T07:31:28;7.15;;;5.10;;
48791;SDS011;34587;48.816;9.420;2024-03-17T07:33:54;8.48;;;4.28;;
48791;SDS011;34587;48.816;9.420;2024-03-17T07:36:19;7.22;;;5.47;;
48791;SDS011;34587;48.816;9.420;2024-03-17T07:38:47;7.07;;;4.70;;
48791;SDS011;34587;48.816;9.420;2024-03-17T07:41:12;6.40;;;4.55;;
48791;SDS011;34587;48.816;9.420;2024-03-17T07:43:38;7.43;;;4.35;;
48791;SDS011;34587;48.816;9.420;2024-03-17T07:46:04;6.20;;;4.63;;
48791;SDS011;34587;48.816;9.420;2024-03-17T07:48:32;5.72;;;4.50;;
48791;SDS011;34587;48.816;9.420;2024-03-17T07:51:02;6.38;;;4.50;;
48791;SDS011;34587;48.816;9.420;2024-03-17T07:53:30;6.07;;;3.88;;
48791;SDS011;34587;48.816;9.420;2024-03-17T07:56:05;5.13;;;4.05;;
48791;SDS011;34587;48.816;9.420;2024-03-17T07:58:33;5.72;;;4.50;;
48791;SDS011;34587;48.816;9.420;2024-03-17T08:01:08;7.88;;;4.20;;
48791;SDS011;34587;48.816;9.420;2024-03-17T08:03:38;7.13;;;4.53;;
48791;SDS011;34587;48.816;9.420;2024-03-17T08:08:31;6.82;;;4.65;;
48791;SDS011;34587;48.816;9.420;2024-03-17T08:10:57;5.70;;;4.53;;
48791;SDS011;34587;48.816;9.420;2024-03-17T08:13:23;5.95;;;4.53;;
48791;SDS011;34587;48.816;9.420;2024-03-17T08:15:56;4.85;;;3.65;;
48791;SDS011;34587;48.816;9.420;2024-03-17T08:18:25;6.45;;;4.43;;
48791;SDS011;34587;48.816;9.420;2024-03-17T08:20:52;5.38;;;4.05;;
48791;SDS011;34587;48.816;9.420;2024-03-17T08:23:18;6.65;;;4.68;;
48791;SDS011;34587;48.816;9.420;2024-03-17T08:25:51;5.05;;;3.78;;
48791;SDS011;34587;48.816;9.420;2024-03-17T08:28:17;5.63;;;3.88;;
48791;SDS011;34587;48.816;9.420;2024-03-17T08:30:42;4.88;;;3.90;;
48791;SDS011;34587;48.816;9.420;2024-03-17T08:33:07;5.50;;;3.60;;
48791;SDS011;34587;48.816;9.420;2024-03-17T08:35:34;5.82;;;4.15;;
48791;SDS011;34587;48.816;9.420;2024-03-17T08:38:02;4.75;;;4.10;;
48791;SDS011;34587;48.816;9.420;2024-03-17T08:40:27;8.00;;;4.55;;
48791;SDS011;34587;48.816;9.420;2024-03-17T08:42:53;6.68;;;4.22;;
48791;SDS011;34587;48.816;9.420;2024-03-17T08:45:18;21.05;;;10.07;;
48791;SDS011;34587;48.816;9.420;2024-03-17T08:47:43;13.70;;;5.97;;
48791;SDS011;34587;48.816;9.420;2024-03-17T08:50:09;12.82;;;7.65;;
48791;SDS011;34587;48.816;9.420;2024-03-17T08:52:37;12.18;;;6.70;;
48791;SDS011;34587;48.816;9.420;2024-03-17T08:55:02;10.27;;;5.72;;
48791;SDS011;34587;48.816;9.420;2024-03-17T08:57:29;10.05;;;4.18;;
48791;SDS011;34587;48.816;9.420;2024-03-17T08:59:54;6.93;;;4.45;;
48791;SDS011;34587;48.816;9.420;2024-03-17T09:02:20;9.38;;;4.78;;
48791;SDS011;34587;48.816;9.420;2024-03-17T09:04:46;6.78;;;4.57;;
48791;SDS011;34587;48.816;9.420;2024-03-17T09:07:12;4.88;;;4.05;;
48791;SDS011;34587;48.816;9.420;2024-03-17T09:09:38;5.38;;;4.13;;
48791;SDS011;34587;48.816;9.420;2024-03-17T09:12:04;6.00;;;4.57;;
48791;SDS011;34587;48.816;9.420;2024-03-17T09:14:30;4.30;;;3.60;;
48791;SDS011;34587;48.816;9.420;2024-03-17T09:16:56;4.80;;;3.63;;
48791;SDS011;34587;48.816;9.420;2024-03-17T09:19:23;5.80;;;3.80;;
48791;SDS011;34587;48.816;9.420;2024-03-17T09:21:48;3.83;;;2.90;;
48791;SDS011;34587;48.816;9.420;2024-03-17T09:24:14;3.97;;;3.30;;
48791;SDS011;34587;48.816;9.420;2024-03-17T09:26:39;4.38;;;3.55;;
48791;SDS011;34587;48.816;9.420;2024-03-17T09:29:04;5.72;;;3.65;;
48791;SDS011;34587;48.816;9.420;2024-03-17T09:31:30;5.53;;;3.53;;
48791;SDS011;34587;48.816;9.420;2024-03-17T09:33:58;4.30;;;2.90;;
48791;SDS011;34587;48.816;9.420;2024-03-17T09:36:24;3.63;;;2.67;;
48791;SDS011;34587;48.816;9.420;2024-03-17T09:38:49;3.80;;;2.80;;
48791;SDS011;34587;48.816;9.420;2024-03-17T09:41:21;4.05;;;3.30;;
48791;SDS011;34587;48.816;9.420;2024-03-17T09:43:49;5.18;;;3.20;;
48791;SDS011;34587;48.816;9.420;2024-03-17T09:46:18;3.85;;;2.90;;
48791;SDS011;34587;48.816;9.420;2024-03-17T09:48:44;3.20;;;2.67;;
48791;SDS011;34587;48.816;9.420;2024-03-17T09:51:13;4.47;;;2.42;;
48791;SDS011;34587;48.816;9.420;2024-03-17T09:53:45;3.83;;;3.20;;
48791;SDS011;34587;48.816;9.420;2024-03-17T09:56:11;2.78;;;2.42;;
48791;SDS011;34587;48.816;9.420;2024-03-17T10:01:05;4.78;;;2.40;;
48791;SDS011;34587;48.816;9.420;2024-03-17T10:06:24;2.95;;;2.05;;
48791;SDS011;34587;48.816;9.420;2024-03-17T10:08:59;3.58;;;2.35;;
48791;SDS011;34587;48.816;9.420;2024-03-17T10:11:32;2.17;;;1.80;;
48791;SDS011;34587;48.816;9.420;2024-03-17T10:14:01;4.57;;;1.60;;
48791;SDS011;34587;48.816;9.420;2024-03-17T10:16:28;2.42;;;1.50;;
48791;SDS011;34587;48.816;9.420;2024-03-17T10:21:49;3.00;;;1.90;;
48791;SDS011;34587;48.816;9.420;2024-03-17T10:24:22;3.10;;;1.70;;
48791;SDS011;34587;48.816;9.420;2024-03-17T10:26:49;3.65;;;1.88;;
48791;SDS011;34587;48.816;9.420;2024-03-17T10:34:43;1.95;;;1.70;;
48791;SDS011;34587;48.816;9.420;2024-03-17T10:37:09;2.08;;;1.70;;
48791;SDS011;34587;48.816;9.420;2024-03-17T10:39:39;2.10;;;1.88;;
48791;SDS011;34587;48.816;9.420;2024-03-17T10:42:06;2.20;;;1.50;;
48791;SDS011;34587;48.816;9.420;2024-03-17T10:44:34;2.35;;;1.63;;
48791;SDS011;34587;48.816;9.420;2024-03-17T10:47:01;3.00;;;1.55;;
48791;SDS011;34587;48.816;9.420;2024-03-17T10:49:28;2.60;;;2.00;;
48791;SDS011;34587;48.816;9.420;2024-03-17T10:52:00;1.92;;;1.70;;
48791;SDS011;34587;48.816;9.420;2024-03-17T10:54:27;3.63;;;2.55;;
48791;SDS011;34587;48.816;9.420;2024-03-17T10:56:57;5.93;;;3.55;;
48791;SDS011;34587;48.816;9.420;2024-03-17T10:59:40;6.82;;;3.40;;
48791;SDS011;34587;48.816;9.420;2024-03-17T11:02:20;4.15;;;2.13;;
48791;SDS011;34587;48.816;9.420;2024-03-17T11:04:47;3.83;;;1.88;;
48791;SDS011;34587;48.816;9.420;2024-03-17T11:07:15;4.40;;;1.60;;
48791;SDS011;34587;48.816;9.420;2024-03-17T11:09:42;3.30;;;1.80;;
48791;SDS011;34587;48.816;9.420;2024-03-17T11:17:43;1.85;;;1.10;;
48791;SDS011;34587;48.816;9.420;2024-03-17T11:20:15;3.67;;;1.80;;
48791;SDS011;34587;48.816;9.420;2024-03-17T11:22:48;3.00;;;1.60;;
48791;SDS011;34587;48.816;9.420;2024-03-17T11:27:56;4.30;;;1.23;;
48791;SDS011;34587;48.816;9.420;2024-03-17T11:38:52;3.65;;;1.60;;
48791;SDS011;34587;48.816;9.420;2024-03-17T11:44:23;3.05;;;1.10;;
48791;SDS011;34587;48.816;9.420;2024-03-17T11:46:58;1.30;;;1.20;;
48791;SDS011;34587;48.816;9.420;2024-03-17T11:49:32;1.15;;;1.05;;
48791;SDS011;34587;48.816;9.420;2024-03-17T11:54:33;2.88;;;1.33;;
48791;SDS011;34587;48.816;9.420;2024-03-17T11:57:01;2.40;;;1.42;;
48791;SDS011;34587;48.816;9.420;2024-03-17T11:59:26;5.07;;;1.60;;
48791;SDS011;34587;48.816;9.420;2024-03-17T12:01:52;4.20;;;1.83;;
48791;SDS011;34587;48.816;9.420;2024-03-17T12:04:18;1.80;;;1.30;;
48791;SDS011;34587;48.816;9.420;2024-03-17T12:06:46;1.77;;;1.02;;
48791;SDS011;34587;48.816;9.420;2024-03-17T12:11:47;0.98;;;0.95;;
48791;SDS011;34587;48.816;9.420;2024-03-17T12:14:19;1.92;;;1.33;;
48791;SDS011;34587;48.816;9.420;2024-03-17T12:16:51;1.52;;;1.10;;
48791;SDS011;34587;48.816;9.420;2024-03-17T12:19:19;4.32;;;1.13;;
48791;SDS011;34587;48.816;9.420;2024-03-17T12:21:45;1.75;;;1.20;;
48791;SDS011;34587;48.816;9.420;2024-03-17T12:24:14;2.15;;;1.30;;
48791;SDS011;34587;48.816;9.420;2024-03-17T12:26:41;1.90;;;1.05;;
48791;SDS011;34587;48.816;9.420;2024-03-17T12:29:21;4.28;;;1.30;;
48791;SDS011;34587;48.816;9.420;2024-03-17T12:32:26;2.47;;;1.17;;
48791;SDS011;34587;48.816;9.420;2024-03-17T12:37:20;4.10;;;1.40;;
48791;SDS011;34587;48.816;9.420;2024-03-17T12:39:47;3.90;;;1.60;;
48791;SDS011;34587;48.816;9.420;2024-03-17T12:42:14;2.03;;;1.27;;
48791;SDS011;34587;48.816;9.420;2024-03-17T12:44:54;1.73;;;1.63;;
48791;SDS011;34587;48.816;9.420;2024-03-17T12:49:54;2.28;;;1.20;;
48791;SDS011;34587;48.816;9.420;2024-03-17T12:52:21;2.55;;;1.45;;
48791;SDS011;34587;48.816;9.420;2024-03-17T12:55:00;13.68;;;6.72;;
48791;SDS011;34587;48.816;9.420;2024-03-17T12:57:46;3.28;;;1.27;;
48791;SDS011;34587;48.816;9.420;2024-03-17T13:00:31;2.28;;;1.60;;
48791;SDS011;34587;48.816;9.420;2024-03-17T13:02:56;1.90;;;1.30;;
48791;SDS011;34587;48.816;9.420;2024-03-17T13:05:22;1.65;;;1.02;;
48791;SDS011;34587;48.816;9.420;2024-03-17T13:07:48;3.60;;;1.50;;
48791;SDS011;34587;48.816;9.420;2024-03-17T13:10:15;2.40;;;1.30;;
48791;SDS011;34587;48.816;9.420;2024-03-17T13:12:42;2.90;;;1.40;;
48791;SDS011;34587;48.816;9.420;2024-03-17T13:15:08;2.13;;;1.52;;
48791;SDS011;34587;48.816;9.420;2024-03-17T13:17:36;6.18;;;1.30;;
48791;SDS011;34587;48.816;9.420;2024-03-17T13:20:02;2.88;;;1.40;;
48791;SDS011;34587;48.816;9.420;2024-03-17T13:22:29;2.22;;;1.48;;
48791;SDS011;34587;48.816;9.420;2024-03-17T13:24:54;4.65;;;1.27;;
48791;SDS011;34587;48.816;9.420;2024-03-17T13:27:19;2.40;;;1.33;;
48791;SDS011;34587;48.816;9.420;2024-03-17T13:29:48;2.83;;;1.17;;
48791;SDS011;34587;48.816;9.420;2024-03-17T13:32:13;2.03;;;1.55;;
48791;SDS011;34587;48.816;9.420;2024-03-17T13:34:40;6.55;;;2.08;;
48791;SDS011;34587;48.816;9.420;2024-03-17T13:37:06;1.55;;;1.45;;
48791;SDS011;34587;48.816;9.420;2024-03-17T13:39:32;4.78;;;1.52;;
48791;SDS011;34587;48.816;9.420;2024-03-17T13:41:58;4.72;;;1.58;;
48791;SDS011;34587;48.816;9.420;2024-03-17T13:44:30;3.05;;;1.60;;
48791;SDS011;34587;48.816;9.420;2024-03-17T13:46:56;5.22;;;1.63;;
48791;SDS011;34587;48.816;9.420;2024-03-17T13:49:22;2.75;;;1.60;;
48791;SDS011;34587;48.816;9.420;2024-03-17T13:51:48;4.93;;;1.75;;
48791;SDS011;34587;48.816;9.420;2024-03-17T13:54:13;2.08;;;1.20;;
48791;SDS011;34587;48.816;9.420;2024-03-17T13:56:39;2.53;;;1.40;;
48791;SDS011;34587;48.816;9.420;2024-03-17T13:59:05;3.67;;;2.15;;
48791;SDS011;34587;48.816;9.420;2024-03-17T14:01:30;3.15;;;1.48;;
48791;SDS011;34587;48.816;9.420;2024-03-17T14:03:56;4.82;;;1.08;;
48791;SDS011;34587;48.816;9.420;2024-03-17T14:06:21;1.70;;;1.45;;
48791;SDS011;34587;48.816;9.420;2024-03-17T14:08:46;3.05;;;1.52;;
48791;SDS011;34587;48.816;9.420;2024-03-17T14:11:11;2.17;;;1.70;;
48791;SDS011;34587;48.816;9.420;2024-03-17T14:13:37;2.13;;;1.42;;
48791;SDS011;34587;48.816;9.420;2024-03-17T14:16:02;2.60;;;1.55;;
48791;SDS011;34587;48.816;9.420;2024-03-17T14:18:29;3.05;;;1.02;;
48791;SDS011;34587;48.816;9.420;2024-03-17T14:20:57;7.40;;;1.90;;
48791;SDS011;34587;48.816;9.420;2024-03-17T14:23:23;2.17;;;1.48;;
48791;SDS011;34587;48.816;9.420;2024-03-17T14:25:49;1.85;;;1.20;;
48791;SDS011;34587;48.816;9.420;2024-03-17T14:28:15;3.38;;;1.40;;
48791;SDS011;34587;48.816;9.420;2024-03-17T14:30:40;5.85;;;2.08;;
48791;SDS011;34587;48.816;9.420;2024-03-17T14:33:06;4.95;;;1.35;;
48791;SDS011;34587;48.816;9.420;2024-03-17T14:35:32;1.52;;;1.35;;
48791;SDS011;34587;48.816;9.420;2024-03-17T14:37:58;4.55;;;1.70;;
48791;SDS011;34587;48.816;9.420;2024-03-17T14:40:24;1.65;;;1.30;;
48791;SDS011;34587;48.816;9.420;2024-03-17T14:42:50;1.60;;;1.50;;
48791;SDS011;34587;48.816;9.420;2024-03-17T14:45:19;5.43;;;2.05;;
48791;SDS011;34587;48.816;9.420;2024-03-17T14:47:46;2.00;;;1.33;;
48791;SDS011;34587;48.816;9.420;2024-03-17T14:50:11;3.45;;;1.75;;
48791;SDS011;34587;48.816;9.420;2024-03-17T14:52:37;1.45;;;1.35;;
48791;SDS011;34587;48.816;9.420;2024-03-17T14:55:03;2.70;;;1.50;;
48791;SDS011;34587;48.816;9.420;2024-03-17T14:57:29;10.35;;;2.40;;
48791;SDS011;34587;48.816;9.420;2024-03-17T14:59:55;1.73;;;1.50;;
48791;SDS011;34587;48.816;9.420;2024-03-17T15:02:20;3.63;;;1.40;;
48791;SDS011;34587;48.816;9.420;2024-03-17T15:04:46;2.40;;;1.20;;
48791;SDS011;34587;48.816;9.420;2024-03-17T15:07:12;4.93;;;1.45;;
48791;SDS011;34587;48.816;9.420;2024-03-17T15:09:37;1.83;;;1.30;;
48791;SDS011;34587;48.816;9.420;2024-03-17T15:12:03;5.13;;;1.38;;
48791;SDS011;34587;48.816;9.420;2024-03-17T15:14:28;1.92;;;1.42;;
48791;SDS011;34587;48.816;9.420;2024-03-17T15:16:56;4.13;;;1.80;;
48791;SDS011;34587;48.816;9.420;2024-03-17T15:19:22;3.67;;;1.70;;
48791;SDS011;34587;48.816;9.420;2024-03-17T15:21:47;2.13;;;1.40;;
48791;SDS011;34587;48.816;9.420;2024-03-17T15:24:12;3.80;;;1.35;;
48791;SDS011;34587;48.816;9.420;2024-03-17T15:26:38;4.25;;;1.30;;
48791;SDS011;34587;48.816;9.420;2024-03-17T15:29:03;4.78;;;1.50;;
48791;SDS011;34587;48.816;9.420;2024-03-17T15:31:29;4.55;;;2.47;;
48791;SDS011;34587;48.816;9.420;2024-03-17T15:33:55;2.67;;;1.63;;
48791;SDS011;34587;48.816;9.420;2024-03-17T15:36:22;4.10;;;1.55;;
48791;SDS011;34587;48.816;9.420;2024-03-17T15:38:49;2.33;;;1.33;;
48791;SDS011;34587;48.816;9.420;2024-03-17T15:41:15;3.53;;;1.30;;
48791;SDS011;34587;48.816;9.420;2024-03-17T15:43:41;3.40;;;1.52;;
48791;SDS011;34587;48.816;9.420;2024-03-17T15:46:16;3.13;;;1.30;;
48791;SDS011;34587;48.816;9.420;2024-03-17T15:48:44;3.25;;;1.15;;
48791;SDS011;34587;48.816;9.420;2024-03-17T15:51:11;2.05;;;1.30;;
48791;SDS011;34587;48.816;9.420;2024-03-17T15:53:36;3.63;;;2.28;;
48791;SDS011;34587;48.816;9.420;2024-03-17T15:56:03;4.30;;;1.50;;
48791;SDS011;34587;48.816;9.420;2024-03-17T15:58:29;2.40;;;0.90;;
48791;SDS011;34587;48.816;9.420;2024-03-17T16:03:57;2.13;;;1.10;;
48791;SDS011;34587;48.816;9.420;2024-03-17T16:06:22;1.48;;;1.10;;
48791;SDS011;34587;48.816;9.420;2024-03-17T16:08:50;1.52;;;1.42;;
48791;SDS011;34587;48.816;9.420;2024-03-17T16:11:19;1.73;;;1.20;;
48791;SDS011;34587;48.816;9.420;2024-03-17T16:13:51;2.92;;;1.33;;
48791;SDS011;34587;48.816;9.420;2024-03-17T16:16:19;1.77;;;1.33;;
48791;SDS011;34587;48.816;9.420;2024-03-17T16:18:46;4.72;;;1.00;;
48791;SDS011;34587;48.816;9.420;2024-03-17T16:21:15;2.17;;;1.20;;
48791;SDS011;34587;48.816;9.420;2024-03-17T16:23:58;1.33;;;1.20;;
48791;SDS011;34587;48.816;9.420;2024-03-17T16:26:26;2.28;;;1.33;;
48791;SDS011;34587;48.816;9.420;2024-03-17T16:28:52;1.83;;;1.45;;
48791;SDS011;34587;48.816;9.420;2024-03-17T16:31:19;3.30;;;2.28;;
48791;SDS011;34587;48.816;9.420;2024-03-17T16:33:45;2.67;;;1.20;;
48791;SDS011;34587;48.816;9.420;2024-03-17T16:36:11;3.92;;;1.50;;
48791;SDS011;34587;48.816;9.420;2024-03-17T16:38:36;4.72;;;1.90;;
48791;SDS011;34587;48.816;9.420;2024-03-17T16:41:03;4.47;;;1.48;;
48791;SDS011;34587;48.816;9.420;2024-03-17T16:43:42;4.75;;;1.95;;
48791;SDS011;34587;48.816;9.420;2024-03-17T16:46:49;4.63;;;1.40;;
48791;SDS011;34587;48.816;9.420;2024-03-17T16:49:32;5.22;;;2.10;;
48791;SDS011;34587;48.816;9.420;2024-03-17T16:52:02;10.43;;;3.97;;
48791;SDS011;34587;48.816;9.420;2024-03-17T16:54:29;5.20;;;3.42;;
48791;SDS011;34587;48.816;9.420;2024-03-17T16:57:01;3.42;;;1.75;;
48791;SDS011;34587;48.816;9.420;2024-03-17T16:59:26;6.32;;;1.70;;
48791;SDS011;34587;48.816;9.420;2024-03-17T17:01:52;4.95;;;1.60;;
48791;SDS011;34587;48.816;9.420;2024-03-17T17:04:17;2.60;;;1.75;;
48791;SDS011;34587;48.816;9.420;2024-03-17T17:06:47;3.22;;;1.63;;
48791;SDS011;34587;48.816;9.420;2024-03-17T17:09:13;3.75;;;2.00;;
48791;SDS011;34587;48.816;9.420;2024-03-17T17:11:39;4.22;;;2.10;;
48791;SDS011;34587;48.816;9.420;2024-03-17T17:14:05;3.22;;;1.65;;
48791;SDS011;34587;48.816;9.420;2024-03-17T17:16:31;7.30;;;1.90;;
48791;SDS011;34587;48.816;9.420;2024-03-17T17:19:05;5.70;;;1.70;;
48791;SDS011;34587;48.816;9.420;2024-03-17T17:21:35;5.60;;;2.17;;
48791;SDS011;34587;48.816;9.420;2024-03-17T17:24:00;1.73;;;1.55;;
48791;SDS011;34587;48.816;9.420;2024-03-17T17:26:28;1.77;;;1.55;;
48791;SDS011;34587;48.816;9.420;2024-03-17T17:29:00;4.82;;;2.10;;
48791;SDS011;34587;48.816;9.420;2024-03-17T17:31:27;7.00;;;2.30;;
48791;SDS011;34587;48.816;9.420;2024-03-17T17:33:54;2.08;;;1.98;;
48791;SDS011;34587;48.816;9.420;2024-03-17T17:36:20;8.70;;;1.75;;
48791;SDS011;34587;48.816;9.420;2024-03-17T17:38:46;3.55;;;2.13;;
48791;SDS011;34587;48.816;9.420;2024-03-17T17:41:12;5.22;;;2.33;;
48791;SDS011;34587;48.816;9.420;2024-03-17T17:43:43;2.28;;;1.40;;
48791;SDS011;34587;48.816;9.420;2024-03-17T17:48:36;2.95;;;1.50;;
48791;SDS011;34587;48.816;9.420;2024-03-17T17:51:09;4.65;;;1.60;;
48791;SDS011;34587;48.816;9.420;2024-03-17T17:53:39;1.30;;;1.20;;
48791;SDS011;34587;48.816;9.420;2024-03-17T17:56:05;4.30;;;1.42;;
48791;SDS011;34587;48.816;9.420;2024-03-17T17:58:34;4.55;;;1.83;;
48791;SDS011;34587;48.816;9.420;2024-03-17T18:01:01;4.32;;;2.00;;
48791;SDS011;34587;48.816;9.420;2024-03-17T18:03:27;4.07;;;2.30;;
48791;SDS011;34587;48.816;9.420;2024-03-17T18:05:53;10.23;;;3.80;;
48791;SDS011;34587;48.816;9.420;2024-03-17T18:08:19;6.15;;;3.08;;
48791;SDS011;34587;48.816;9.420;2024-03-17T18:10:45;5.00;;;3.78;;
48791;SDS011;34587;48.816;9.420;2024-03-17T18:13:11;9.18;;;4.78;;
48791;SDS011;34587;48.816;9.420;2024-03-17T18:15:36;9.30;;;4.60;;
48791;SDS011;34587;48.816;9.420;2024-03-17T18:18:02;8.13;;;4.55;;
48791;SDS011;34587;48.816;9.420;2024-03-17T18:20:27;5.57;;;3.20;;
48791;SDS011;34587;48.816;9.420;2024-03-17T18:22:53;3.38;;;2.70;;
48791;SDS011;34587;48.816;9.420;2024-03-17T18:25:18;15.80;;;7.38;;
48791;SDS011;34587;48.816;9.420;2024-03-17T18:27:43;7.97;;;4.15;;
48791;SDS011;34587;48.816;9.420;2024-03-17T18:30:09;6.50;;;2.28;;
48791;SDS011;34587;48.816;9.420;2024-03-17T18:32:35;5.65;;;1.80;;
48791;SDS011;34587;48.816;9.420;2024-03-17T18:35:00;4.40;;;1.83;;
48791;SDS011;34587;48.816;9.420;2024-03-17T18:37:25;3.13;;;1.80;;
48791;SDS011;34587;48.816;9.420;2024-03-17T18:39:52;2.63;;;2.42;;
48791;SDS011;34587;48.816;9.420;2024-03-17T18:42:17;3.05;;;2.72;;
48791;SDS011;34587;48.816;9.420;2024-03-17T18:44:44;3.83;;;2.47;;
48791;SDS011;34587;48.816;9.420;2024-03-17T18:47:10;4.10;;;2.40;;
48791;SDS011;34587;48.816;9.420;2024-03-17T18:49:36;4.15;;;2.40;;
48791;SDS011;34587;48.816;9.420;2024-03-17T18:52:02;7.20;;;3.05;;
48791;SDS011;34587;48.816;9.420;2024-03-17T18:54:29;11.23;;;4.85;;
48791;SDS011;34587;48.816;9.420;2024-03-17T18:56:55;19.45;;;7.05;;
48791;SDS011;34587;48.816;9.420;2024-03-17T18:59:20;13.15;;;5.95;;
48791;SDS011;34587;48.816;9.420;2024-03-17T19:01:46;10.23;;;3.80;;
48791;SDS011;34587;48.816;9.420;2024-03-17T19:04:12;7.32;;;4.70;;
48791;SDS011;34587;48.816;9.420;2024-03-17T19:06:37;5.45;;;2.95;;
48791;SDS011;34587;48.816;9.420;2024-03-17T19:09:03;6.22;;;3.63;;
48791;SDS011;34587;48.816;9.420;2024-03-17T19:11:33;6.47;;;3.47;;
48791;SDS011;34587;48.816;9.420;2024-03-17T19:13:59;4.95;;;2.67;;
48791;SDS011;34587;48.816;9.420;2024-03-17T19:16:25;3.75;;;2.75;;
48791;SDS011;34587;48.816;9.420;2024-03-17T19:18:50;4.80;;;2.97;;
48791;SDS011;34587;48.816;9.420;2024-03-17T19:21:16;7.50;;;2.08;;
48791;SDS011;34587;48.816;9.420;2024-03-17T19:23:42;5.57;;;2.40;;
48791;SDS011;34587;48.816;9.420;2024-03-17T19:26:12;4.28;;;2.20;;
48791;SDS011;34587;48.816;9.420;2024-03-17T19:28:46;5.70;;;3.10;;
48791;SDS011;34587;48.816;9.420;2024-03-17T19:31:12;4.18;;;2.92;;
48791;SDS011;34587;48.816;9.420;2024-03-17T19:33:38;2.72;;;1.80;;
48791;SDS011;34587;48.816;9.420;2024-03-17T19:36:04;2.92;;;2.63;;
48791;SDS011;34587;48.816;9.420;2024-03-17T19:38:31;10.00;;;2.10;;
48791;SDS011;34587;48.816;9.420;2024-03-17T19:41:02;3.40;;;2.95;;
48791;SDS011;34587;48.816;9.420;2024-03-17T19:43:33;3.10;;;2.75;;
48791;SDS011;34587;48.816;9.420;2024-03-17T19:48:41;7.05;;;3.10;;
48791;SDS011;34587;48.816;9.420;2024-03-17T19:51:08;5.20;;;2.65;;
48791;SDS011;34587;48.816;9.420;2024-03-17T19:53:38;4.30;;;2.53;;
48791;SDS011;34587;48.816;9.420;2024-03-17T19:56:04;4.13;;;2.33;;
48791;SDS011;34587;48.816;9.420;2024-03-17T19:58:31;5.03;;;2.58;;
48791;SDS011;34587;48.816;9.420;2024-03-17T20:00:56;3.30;;;2.42;;
48791;SDS011;34587;48.816;9.420;2024-03-17T20:03:21;5.78;;;2.67;;
48791;SDS011;34587;48.816;9.420;2024-03-17T20:05:47;5.68;;;3.00;;
48791;SDS011;34587;48.816;9.420;2024-03-17T20:08:14;7.68;;;3.30;;
48791;SDS011;34587;48.816;9.420;2024-03-17T20:10:39;9.45;;;3.20;;
48791;SDS011;34587;48.816;9.420;2024-03-17T20:13:07;4.28;;;3.22;;
48791;SDS011;34587;48.816;9.420;2024-03-17T20:15:32;7.10;;;3.80;;
48791;SDS011;34587;48.816;9.420;2024-03-17T20:17:58;9.27;;;3.60;;
48791;SDS011;34587;48.816;9.420;2024-03-17T20:20:23;5.50;;;3.70;;
48791;SDS011;34587;48.816;9.420;2024-03-17T20:22:49;7.63;;;4.28;;
48791;SDS011;34587;48.816;9.420;2024-03-17T20:25:15;5.00;;;3.75;;
48791;SDS011;34587;48.816;9.420;2024-03-17T20:27:40;11.98;;;4.30;;